sensor_id;sensor_type;location;lat;lon;timestamp;P1;durP1;ratioP1;P2;durP2;ratioP2
10442;SDS011;5269;51.146;16.986;2022-09-03T00:01:47;2.47;;;2.25;;
10442;SDS011;5269;51.146;16.986;2022-09-03T00:04:24;5.65;;;2.40;;
10442;SDS011;5269;51.146;16.986;2022-09-03T00:10:38;2.30;;;2.10;;
10442;SDS011;5269;51.146;16.986;2022-09-03T00:15:56;2.83;;;2.33;;
10442;SDS011;5269;51.146;16.986;2022-09-03T00:18:26;2.42;;;2.22;;
10442;SDS011;5269;51.146;16.986;2022-09-03T00:21:00;2.20;;;2.00;;
10442;SDS011;5269;51.146;16.986;2022-09-03T00:23:33;2.03;;;1.92;;
10442;SDS011;5269;51.146;16.986;2022-09-03T00:26:21;1.98;;;1.88;;
10442;SDS011;5269;51.146;16.986;2022-09-03T00:28:56;2.28;;;2.00;;
10442;SDS011;5269;51.146;16.986;2022-09-03T00:31:31;2.53;;;2.00;;
10442;SDS011;5269;51.146;16.986;2022-09-03T00:34:25;2.80;;;2.05;;
10442;SDS011;5269;51.146;16.986;2022-09-03T00:37:06;2.40;;;2.20;;
10442;SDS011;5269;51.146;16.986;2022-09-03T00:39:37;2.40;;;2.20;;
10442;SDS011;5269;51.146;16.986;2022-09-03T00:42:11;2.05;;;1.95;;
10442;SDS011;5269;51.146;16.986;2022-09-03T00:45:05;2.20;;;2.00;;
10442;SDS011;5269;51.146;16.986;2022-09-03T00:48:01;2.05;;;1.95;;
10442;SDS011;5269;51.146;16.986;2022-09-03T00:50:40;2.58;;;2.38;;
10442;SDS011;5269;51.146;16.986;2022-09-03T00:53:21;2.10;;;2.00;;
10442;SDS011;5269;51.146;16.986;2022-09-03T00:55:57;2.42;;;2.30;;
10442;SDS011;5269;51.146;16.986;2022-09-03T00:58:33;3.05;;;2.25;;
10442;SDS011;5269;51.146;16.986;2022-09-03T01:01:30;3.05;;;2.03;;
10442;SDS011;5269;51.146;16.986;2022-09-03T01:04:05;2.70;;;2.10;;
10442;SDS011;5269;51.146;16.986;2022-09-03T01:06:47;2.50;;;2.30;;
10442;SDS011;5269;51.146;16.986;2022-09-03T01:09:25;1.88;;;1.77;;
10442;SDS011;5269;51.146;16.986;2022-09-03T01:12:04;2.50;;;2.30;;
10442;SDS011;5269;51.146;16.986;2022-09-03T01:14:45;2.20;;;2.00;;
10442;SDS011;5269;51.146;16.986;2022-09-03T01:17:23;2.38;;;2.17;;
10442;SDS011;5269;51.146;16.986;2022-09-03T01:23:12;2.40;;;2.20;;
10442;SDS011;5269;51.146;16.986;2022-09-03T01:26:27;2.70;;;2.50;;
10442;SDS011;5269;51.146;16.986;2022-09-03T01:29:05;2.22;;;2.03;;
10442;SDS011;5269;51.146;16.986;2022-09-03T01:31:39;2.60;;;2.40;;
10442;SDS011;5269;51.146;16.986;2022-09-03T01:34:16;2.40;;;2.20;;
10442;SDS011;5269;51.146;16.986;2022-09-03T01:36:52;3.65;;;2.72;;
10442;SDS011;5269;51.146;16.986;2022-09-03T01:39:32;3.90;;;2.38;;
10442;SDS011;5269;51.146;16.986;2022-09-03T01:42:09;3.90;;;2.70;;
10442;SDS011;5269;51.146;16.986;2022-09-03T01:45:01;3.53;;;3.13;;
10442;SDS011;5269;51.146;16.986;2022-09-03T01:47:49;3.00;;;2.67;;
10442;SDS011;5269;51.146;16.986;2022-09-03T01:50:33;4.85;;;2.80;;
10442;SDS011;5269;51.146;16.986;2022-09-03T01:53:09;7.32;;;3.10;;
10442;SDS011;5269;51.146;16.986;2022-09-03T01:55:53;2.63;;;2.42;;
10442;SDS011;5269;51.146;16.986;2022-09-03T01:58:31;3.88;;;2.47;;
10442;SDS011;5269;51.146;16.986;2022-09-03T02:01:06;3.38;;;2.67;;
10442;SDS011;5269;51.146;16.986;2022-09-03T02:03:48;5.03;;;2.78;;
10442;SDS011;5269;51.146;16.986;2022-09-03T02:06:15;3.97;;;2.60;;
10442;SDS011;5269;51.146;16.986;2022-09-03T02:08:44;3.65;;;2.78;;
10442;SDS011;5269;51.146;16.986;2022-09-03T02:11:12;4.45;;;2.80;;
10442;SDS011;5269;51.146;16.986;2022-09-03T02:13:40;3.22;;;2.55;;
10442;SDS011;5269;51.146;16.986;2022-09-03T02:16:11;2.47;;;2.28;;
10442;SDS011;5269;51.146;16.986;2022-09-03T02:18:41;2.85;;;2.60;;
10442;SDS011;5269;51.146;16.986;2022-09-03T02:21:12;3.00;;;2.70;;
10442;SDS011;5269;51.146;16.986;2022-09-03T02:23:44;3.80;;;2.67;;
10442;SDS011;5269;51.146;16.986;2022-09-03T02:26:15;3.65;;;2.65;;
10442;SDS011;5269;51.146;16.986;2022-09-03T02:28:49;3.80;;;2.78;;
10442;SDS011;5269;51.146;16.986;2022-09-03T02:31:19;2.58;;;2.30;;
10442;SDS011;5269;51.146;16.986;2022-09-03T02:33:47;2.97;;;2.55;;
10442;SDS011;5269;51.146;16.986;2022-09-03T02:36:18;2.65;;;2.42;;
10442;SDS011;5269;51.146;16.986;2022-09-03T02:38:50;2.80;;;2.60;;
10442;SDS011;5269;51.146;16.986;2022-09-03T02:41:17;3.08;;;2.80;;
10442;SDS011;5269;51.146;16.986;2022-09-03T02:43:45;2.60;;;2.40;;
10442;SDS011;5269;51.146;16.986;2022-09-03T02:46:16;2.60;;;2.40;;
10442;SDS011;5269;51.146;16.986;2022-09-03T02:48:49;3.70;;;2.63;;
10442;SDS011;5269;51.146;16.986;2022-09-03T02:51:17;2.97;;;2.60;;
10442;SDS011;5269;51.146;16.986;2022-09-03T02:53:44;2.92;;;2.65;;
10442;SDS011;5269;51.146;16.986;2022-09-03T02:56:13;3.35;;;2.80;;
10442;SDS011;5269;51.146;16.986;2022-09-03T02:58:40;2.75;;;2.55;;
10442;SDS011;5269;51.146;16.986;2022-09-03T03:01:16;2.80;;;2.60;;
10442;SDS011;5269;51.146;16.986;2022-09-03T03:03:44;3.30;;;2.65;;
10442;SDS011;5269;51.146;16.986;2022-09-03T03:06:11;3.35;;;2.65;;
10442;SDS011;5269;51.146;16.986;2022-09-03T03:08:39;3.15;;;2.28;;
10442;SDS011;5269;51.146;16.986;2022-09-03T03:11:06;3.08;;;2.40;;
10442;SDS011;5269;51.146;16.986;2022-09-03T03:13:36;3.30;;;3.00;;
10442;SDS011;5269;51.146;16.986;2022-09-03T03:16:04;3.13;;;2.65;;
10442;SDS011;5269;51.146;16.986;2022-09-03T03:18:33;2.92;;;2.70;;
10442;SDS011;5269;51.146;16.986;2022-09-03T03:21:08;2.90;;;2.70;;
10442;SDS011;5269;51.146;16.986;2022-09-03T03:23:39;3.20;;;2.90;;
10442;SDS011;5269;51.146;16.986;2022-09-03T03:26:07;2.55;;;2.33;;
10442;SDS011;5269;51.146;16.986;2022-09-03T03:31:59;3.45;;;2.42;;
10442;SDS011;5269;51.146;16.986;2022-09-03T03:34:26;2.60;;;2.40;;
10442;SDS011;5269;51.146;16.986;2022-09-03T03:36:59;2.67;;;2.47;;
10442;SDS011;5269;51.146;16.986;2022-09-03T03:39:28;2.90;;;2.45;;
10442;SDS011;5269;51.146;16.986;2022-09-03T03:42:03;2.75;;;2.50;;
10442;SDS011;5269;51.146;16.986;2022-09-03T03:44:30;2.83;;;2.63;;
10442;SDS011;5269;51.146;16.986;2022-09-03T03:46:57;3.25;;;2.25;;
10442;SDS011;5269;51.146;16.986;2022-09-03T03:49:31;2.80;;;2.55;;
10442;SDS011;5269;51.146;16.986;2022-09-03T03:52:00;2.70;;;2.50;;
10442;SDS011;5269;51.146;16.986;2022-09-03T03:54:28;2.40;;;2.20;;
10442;SDS011;5269;51.146;16.986;2022-09-03T03:56:55;3.65;;;2.53;;
10442;SDS011;5269;51.146;16.986;2022-09-03T03:59:27;3.38;;;2.55;;
10442;SDS011;5269;51.146;16.986;2022-09-03T04:05:15;3.10;;;2.70;;
10442;SDS011;5269;51.146;16.986;2022-09-03T04:07:44;3.42;;;2.70;;
10442;SDS011;5269;51.146;16.986;2022-09-03T04:10:11;3.28;;;2.67;;
10442;SDS011;5269;51.146;16.986;2022-09-03T04:12:39;2.70;;;2.30;;
10442;SDS011;5269;51.146;16.986;2022-09-03T04:15:07;3.13;;;2.47;;
10442;SDS011;5269;51.146;16.986;2022-09-03T04:17:35;2.92;;;2.63;;
10442;SDS011;5269;51.146;16.986;2022-09-03T04:20:10;3.40;;;2.60;;
10442;SDS011;5269;51.146;16.986;2022-09-03T04:22:38;5.90;;;2.70;;
10442;SDS011;5269;51.146;16.986;2022-09-03T04:25:10;3.72;;;2.63;;
10442;SDS011;5269;51.146;16.986;2022-09-03T04:27:42;2.63;;;2.42;;
10442;SDS011;5269;51.146;16.986;2022-09-03T04:30:10;4.00;;;2.60;;
10442;SDS011;5269;51.146;16.986;2022-09-03T04:32:37;2.80;;;2.60;;
10442;SDS011;5269;51.146;16.986;2022-09-03T04:35:20;3.63;;;2.50;;
10442;SDS011;5269;51.146;16.986;2022-09-03T04:38:00;3.60;;;2.70;;
10442;SDS011;5269;51.146;16.986;2022-09-03T04:40:29;4.20;;;2.90;;
10442;SDS011;5269;51.146;16.986;2022-09-03T04:42:56;2.58;;;2.30;;
10442;SDS011;5269;51.146;16.986;2022-09-03T04:45:24;3.25;;;2.55;;
10442;SDS011;5269;51.146;16.986;2022-09-03T04:47:58;6.55;;;2.72;;
10442;SDS011;5269;51.146;16.986;2022-09-03T04:50:27;3.58;;;2.38;;
10442;SDS011;5269;51.146;16.986;2022-09-03T04:52:57;3.40;;;2.65;;
10442;SDS011;5269;51.146;16.986;2022-09-03T04:55:26;4.03;;;2.50;;
10442;SDS011;5269;51.146;16.986;2022-09-03T04:57:57;3.13;;;2.83;;
10442;SDS011;5269;51.146;16.986;2022-09-03T05:00:28;4.38;;;2.80;;
10442;SDS011;5269;51.146;16.986;2022-09-03T05:02:58;3.83;;;2.75;;
10442;SDS011;5269;51.146;16.986;2022-09-03T05:05:25;3.45;;;2.53;;
10442;SDS011;5269;51.146;16.986;2022-09-03T05:07:53;3.78;;;2.60;;
10442;SDS011;5269;51.146;16.986;2022-09-03T05:13:49;3.97;;;2.67;;
10442;SDS011;5269;51.146;16.986;2022-09-03T05:19:39;5.60;;;2.70;;
10442;SDS011;5269;51.146;16.986;2022-09-03T05:22:06;4.25;;;2.58;;
10442;SDS011;5269;51.146;16.986;2022-09-03T05:27:55;3.22;;;2.58;;
10442;SDS011;5269;51.146;16.986;2022-09-03T05:30:24;3.50;;;2.88;;
10442;SDS011;5269;51.146;16.986;2022-09-03T05:32:51;5.38;;;2.92;;
10442;SDS011;5269;51.146;16.986;2022-09-03T05:35:18;3.15;;;2.95;;
10442;SDS011;5269;51.146;16.986;2022-09-03T05:37:45;5.68;;;2.72;;
10442;SDS011;5269;51.146;16.986;2022-09-03T05:40:14;5.45;;;2.72;;
10442;SDS011;5269;51.146;16.986;2022-09-03T05:42:40;3.65;;;2.65;;
10442;SDS011;5269;51.146;16.986;2022-09-03T05:45:08;3.58;;;2.80;;
10442;SDS011;5269;51.146;16.986;2022-09-03T05:47:37;5.40;;;2.33;;
10442;SDS011;5269;51.146;16.986;2022-09-03T05:50:07;3.83;;;2.58;;
10442;SDS011;5269;51.146;16.986;2022-09-03T05:52:35;3.88;;;2.30;;
10442;SDS011;5269;51.146;16.986;2022-09-03T05:55:02;3.55;;;2.97;;
10442;SDS011;5269;51.146;16.986;2022-09-03T06:04:18;5.38;;;2.78;;
10442;SDS011;5269;51.146;16.986;2022-09-03T06:06:45;3.97;;;2.53;;
10442;SDS011;5269;51.146;16.986;2022-09-03T06:12:35;2.42;;;2.22;;
10442;SDS011;5269;51.146;16.986;2022-09-03T06:15:03;3.47;;;2.55;;
10442;SDS011;5269;51.146;16.986;2022-09-03T06:17:30;3.33;;;2.70;;
10442;SDS011;5269;51.146;16.986;2022-09-03T06:19:59;3.65;;;2.58;;
10442;SDS011;5269;51.146;16.986;2022-09-03T06:22:26;2.85;;;2.58;;
10442;SDS011;5269;51.146;16.986;2022-09-03T06:24:57;5.15;;;2.50;;
10442;SDS011;5269;51.146;16.986;2022-09-03T06:30:48;3.08;;;2.28;;
10442;SDS011;5269;51.146;16.986;2022-09-03T06:33:15;3.60;;;2.65;;
10442;SDS011;5269;51.146;16.986;2022-09-03T06:35:44;3.45;;;2.50;;
10442;SDS011;5269;51.146;16.986;2022-09-03T06:41:40;6.03;;;2.58;;
10442;SDS011;5269;51.146;16.986;2022-09-03T06:44:07;3.17;;;2.40;;
10442;SDS011;5269;51.146;16.986;2022-09-03T06:46:43;2.85;;;2.60;;
10442;SDS011;5269;51.146;16.986;2022-09-03T06:52:42;5.55;;;2.70;;
10442;SDS011;5269;51.146;16.986;2022-09-03T06:55:15;3.25;;;2.95;;
10442;SDS011;5269;51.146;16.986;2022-09-03T06:57:54;5.40;;;2.80;;
10442;SDS011;5269;51.146;16.986;2022-09-03T07:00:22;2.60;;;2.40;;
10442;SDS011;5269;51.146;16.986;2022-09-03T07:02:56;3.35;;;2.97;;
10442;SDS011;5269;51.146;16.986;2022-09-03T07:05:34;2.80;;;2.53;;
10442;SDS011;5269;51.146;16.986;2022-09-03T07:08:03;2.63;;;2.42;;
10442;SDS011;5269;51.146;16.986;2022-09-03T07:10:30;3.05;;;2.75;;
10442;SDS011;5269;51.146;16.986;2022-09-03T07:13:09;2.80;;;2.60;;
10442;SDS011;5269;51.146;16.986;2022-09-03T07:15:36;5.10;;;2.40;;
10442;SDS011;5269;51.146;16.986;2022-09-03T07:18:05;5.43;;;2.97;;
10442;SDS011;5269;51.146;16.986;2022-09-03T07:20:34;4.43;;;2.50;;
10442;SDS011;5269;51.146;16.986;2022-09-03T07:23:03;4.13;;;2.40;;
10442;SDS011;5269;51.146;16.986;2022-09-03T07:25:29;2.92;;;2.60;;
10442;SDS011;5269;51.146;16.986;2022-09-03T07:27:56;4.18;;;2.38;;
10442;SDS011;5269;51.146;16.986;2022-09-03T07:33:46;7.07;;;2.67;;
10442;SDS011;5269;51.146;16.986;2022-09-03T07:42:58;2.97;;;2.67;;
10442;SDS011;5269;51.146;16.986;2022-09-03T07:45:27;4.35;;;2.70;;
10442;SDS011;5269;51.146;16.986;2022-09-03T07:47:54;2.85;;;2.65;;
10442;SDS011;5269;51.146;16.986;2022-09-03T07:50:21;3.85;;;3.08;;
10442;SDS011;5269;51.146;16.986;2022-09-03T07:56:10;5.72;;;3.33;;
10442;SDS011;5269;51.146;16.986;2022-09-03T07:58:38;5.50;;;3.13;;
10442;SDS011;5269;51.146;16.986;2022-09-03T08:01:07;3.67;;;2.90;;
10442;SDS011;5269;51.146;16.986;2022-09-03T08:03:35;4.28;;;3.15;;
10442;SDS011;5269;51.146;16.986;2022-09-03T08:06:02;3.70;;;2.65;;
10442;SDS011;5269;51.146;16.986;2022-09-03T08:08:31;5.03;;;3.10;;
10442;SDS011;5269;51.146;16.986;2022-09-03T08:11:03;4.47;;;3.13;;
10442;SDS011;5269;51.146;16.986;2022-09-03T08:13:35;4.68;;;3.00;;
10442;SDS011;5269;51.146;16.986;2022-09-03T08:16:04;6.18;;;3.25;;
10442;SDS011;5269;51.146;16.986;2022-09-03T08:18:32;6.40;;;3.40;;
10442;SDS011;5269;51.146;16.986;2022-09-03T08:21:02;4.22;;;3.33;;
10442;SDS011;5269;51.146;16.986;2022-09-03T08:23:31;5.22;;;3.50;;
10442;SDS011;5269;51.146;16.986;2022-09-03T08:25:58;4.38;;;3.42;;
10442;SDS011;5269;51.146;16.986;2022-09-03T08:28:25;5.88;;;3.15;;
10442;SDS011;5269;51.146;16.986;2022-09-03T08:30:52;4.25;;;3.15;;
10442;SDS011;5269;51.146;16.986;2022-09-03T08:33:21;3.38;;;2.90;;
10442;SDS011;5269;51.146;16.986;2022-09-03T08:36:03;3.53;;;3.22;;
10442;SDS011;5269;51.146;16.986;2022-09-03T08:46:53;7.55;;;3.35;;
10442;SDS011;5269;51.146;16.986;2022-09-03T09:07:36;5.53;;;3.30;;
10442;SDS011;5269;51.146;16.986;2022-09-03T09:10:13;6.50;;;3.70;;
10442;SDS011;5269;51.146;16.986;2022-09-03T09:12:50;6.30;;;3.30;;
10442;SDS011;5269;51.146;16.986;2022-09-03T09:15:37;5.22;;;3.30;;
10442;SDS011;5269;51.146;16.986;2022-09-03T09:18:19;4.82;;;3.20;;
10442;SDS011;5269;51.146;16.986;2022-09-03T09:21:26;4.75;;;3.50;;
10442;SDS011;5269;51.146;16.986;2022-09-03T09:23:49;4.28;;;3.20;;
10442;SDS011;5269;51.146;16.986;2022-09-03T09:26:19;6.28;;;3.05;;
10442;SDS011;5269;51.146;16.986;2022-09-03T09:28:51;3.58;;;3.20;;
10442;SDS011;5269;51.146;16.986;2022-09-03T09:31:23;8.45;;;3.38;;
10442;SDS011;5269;51.146;16.986;2022-09-03T09:33:50;4.78;;;3.00;;
10442;SDS011;5269;51.146;16.986;2022-09-03T09:39:57;3.35;;;3.03;;
10442;SDS011;5269;51.146;16.986;2022-09-03T09:42:39;3.53;;;3.22;;
10442;SDS011;5269;51.146;16.986;2022-09-03T09:45:13;5.70;;;2.97;;
10442;SDS011;5269;51.146;16.986;2022-09-03T09:47:40;3.40;;;3.10;;
10442;SDS011;5269;51.146;16.986;2022-09-03T09:50:15;5.13;;;3.13;;
10442;SDS011;5269;51.146;16.986;2022-09-03T09:55:31;5.47;;;3.10;;
10442;SDS011;5269;51.146;16.986;2022-09-03T10:04:11;3.75;;;3.42;;
10442;SDS011;5269;51.146;16.986;2022-09-03T10:07:19;3.25;;;2.92;;
10442;SDS011;5269;51.146;16.986;2022-09-03T10:10:13;4.13;;;3.20;;
10442;SDS011;5269;51.146;16.986;2022-09-03T10:12:55;3.25;;;2.85;;
10442;SDS011;5269;51.146;16.986;2022-09-03T10:19:12;3.25;;;2.95;;
10442;SDS011;5269;51.146;16.986;2022-09-03T10:25:14;3.05;;;2.67;;
10442;SDS011;5269;51.146;16.986;2022-09-03T10:27:56;4.43;;;3.22;;
10442;SDS011;5269;51.146;16.986;2022-09-03T10:30:52;3.20;;;2.88;;
10442;SDS011;5269;51.146;16.986;2022-09-03T10:33:46;6.75;;;3.05;;
10442;SDS011;5269;51.146;16.986;2022-09-03T10:36:28;6.00;;;3.20;;
10442;SDS011;5269;51.146;16.986;2022-09-03T10:41:46;3.67;;;3.10;;
10442;SDS011;5269;51.146;16.986;2022-09-03T10:44:35;4.60;;;3.08;;
10442;SDS011;5269;51.146;16.986;2022-09-03T10:47:49;5.60;;;3.47;;
10442;SDS011;5269;51.146;16.986;2022-09-03T10:51:02;4.88;;;3.17;;
10442;SDS011;5269;51.146;16.986;2022-09-03T10:53:42;7.40;;;3.28;;
10442;SDS011;5269;51.146;16.986;2022-09-03T10:56:24;3.55;;;3.10;;
10442;SDS011;5269;51.146;16.986;2022-09-03T10:59:30;4.97;;;3.22;;
10442;SDS011;5269;51.146;16.986;2022-09-03T11:05:21;3.55;;;3.05;;
10442;SDS011;5269;51.146;16.986;2022-09-03T11:08:00;7.47;;;3.10;;
10442;SDS011;5269;51.146;16.986;2022-09-03T11:10:33;3.38;;;2.83;;
10442;SDS011;5269;51.146;16.986;2022-09-03T11:13:07;5.50;;;3.25;;
10442;SDS011;5269;51.146;16.986;2022-09-03T11:15:39;4.95;;;3.40;;
10442;SDS011;5269;51.146;16.986;2022-09-03T11:18:11;3.63;;;2.90;;
10442;SDS011;5269;51.146;16.986;2022-09-03T11:20:45;5.15;;;3.40;;
10442;SDS011;5269;51.146;16.986;2022-09-03T11:23:18;3.30;;;3.00;;
10442;SDS011;5269;51.146;16.986;2022-09-03T11:28:49;4.47;;;2.97;;
10442;SDS011;5269;51.146;16.986;2022-09-03T11:31:23;4.13;;;3.05;;
10442;SDS011;5269;51.146;16.986;2022-09-03T11:33:57;3.22;;;2.92;;
10442;SDS011;5269;51.146;16.986;2022-09-03T11:36:36;4.45;;;2.83;;
10442;SDS011;5269;51.146;16.986;2022-09-03T11:39:13;3.55;;;3.08;;
10442;SDS011;5269;51.146;16.986;2022-09-03T11:41:57;4.35;;;3.30;;
10442;SDS011;5269;51.146;16.986;2022-09-03T11:44:37;3.88;;;2.63;;
10442;SDS011;5269;51.146;16.986;2022-09-03T11:47:20;5.53;;;3.10;;
10442;SDS011;5269;51.146;16.986;2022-09-03T11:49:49;4.35;;;3.30;;
10442;SDS011;5269;51.146;16.986;2022-09-03T11:52:28;4.25;;;3.15;;
10442;SDS011;5269;51.146;16.986;2022-09-03T11:54:56;6.47;;;3.40;;
10442;SDS011;5269;51.146;16.986;2022-09-03T11:57:27;4.57;;;3.00;;
10442;SDS011;5269;51.146;16.986;2022-09-03T12:00:07;8.88;;;3.55;;
10442;SDS011;5269;51.146;16.986;2022-09-03T12:02:41;4.22;;;3.28;;
10442;SDS011;5269;51.146;16.986;2022-09-03T12:05:20;4.72;;;3.50;;
10442;SDS011;5269;51.146;16.986;2022-09-03T12:08:15;4.68;;;3.28;;
10442;SDS011;5269;51.146;16.986;2022-09-03T12:11:08;8.55;;;3.42;;
10442;SDS011;5269;51.146;16.986;2022-09-03T12:13:55;4.80;;;3.25;;
10442;SDS011;5269;51.146;16.986;2022-09-03T12:16:33;6.07;;;3.30;;
10442;SDS011;5269;51.146;16.986;2022-09-03T12:19:23;4.18;;;3.63;;
10442;SDS011;5269;51.146;16.986;2022-09-03T12:21:57;3.70;;;3.40;;
10442;SDS011;5269;51.146;16.986;2022-09-03T12:24:29;4.75;;;3.38;;
10442;SDS011;5269;51.146;16.986;2022-09-03T12:27:01;4.63;;;3.47;;
10442;SDS011;5269;51.146;16.986;2022-09-03T12:29:30;4.50;;;3.75;;
10442;SDS011;5269;51.146;16.986;2022-09-03T12:32:04;3.88;;;3.30;;
10442;SDS011;5269;51.146;16.986;2022-09-03T12:34:33;6.78;;;3.35;;
10442;SDS011;5269;51.146;16.986;2022-09-03T12:37:17;3.90;;;3.40;;
10442;SDS011;5269;51.146;16.986;2022-09-03T12:39:55;4.03;;;3.28;;
10442;SDS011;5269;51.146;16.986;2022-09-03T12:43:10;5.95;;;4.18;;
10442;SDS011;5269;51.146;16.986;2022-09-03T12:45:57;5.15;;;3.38;;
10442;SDS011;5269;51.146;16.986;2022-09-03T12:48:32;3.65;;;3.33;;
10442;SDS011;5269;51.146;16.986;2022-09-03T12:51:37;6.47;;;3.60;;
10442;SDS011;5269;51.146;16.986;2022-09-03T12:54:11;5.18;;;3.25;;
10442;SDS011;5269;51.146;16.986;2022-09-03T12:56:43;3.33;;;3.03;;
10442;SDS011;5269;51.146;16.986;2022-09-03T12:59:17;5.70;;;3.40;;
10442;SDS011;5269;51.146;16.986;2022-09-03T13:01:49;6.75;;;3.45;;
10442;SDS011;5269;51.146;16.986;2022-09-03T13:04:20;5.38;;;3.42;;
10442;SDS011;5269;51.146;16.986;2022-09-03T13:07:01;3.88;;;3.45;;
10442;SDS011;5269;51.146;16.986;2022-09-03T13:09:44;5.07;;;3.42;;
10442;SDS011;5269;51.146;16.986;2022-09-03T13:12:42;4.22;;;2.95;;
10442;SDS011;5269;51.146;16.986;2022-09-03T13:18:22;5.05;;;3.22;;
10442;SDS011;5269;51.146;16.986;2022-09-03T13:21:18;3.72;;;3.20;;
10442;SDS011;5269;51.146;16.986;2022-09-03T13:24:02;3.85;;;3.25;;
10442;SDS011;5269;51.146;16.986;2022-09-03T13:27:12;5.55;;;3.13;;
10442;SDS011;5269;51.146;16.986;2022-09-03T13:30:28;5.97;;;2.95;;
10442;SDS011;5269;51.146;16.986;2022-09-03T13:33:31;6.68;;;3.30;;
10442;SDS011;5269;51.146;16.986;2022-09-03T13:39:31;3.35;;;3.08;;
10442;SDS011;5269;51.146;16.986;2022-09-03T13:42:23;3.83;;;3.33;;
10442;SDS011;5269;51.146;16.986;2022-09-03T13:52:12;3.30;;;3.00;;
10442;SDS011;5269;51.146;16.986;2022-09-03T13:59:03;4.07;;;3.15;;
10442;SDS011;5269;51.146;16.986;2022-09-03T14:12:04;4.22;;;3.83;;
10442;SDS011;5269;51.146;16.986;2022-09-03T14:18:45;5.63;;;3.53;;
10442;SDS011;5269;51.146;16.986;2022-09-03T14:35:11;7.07;;;3.70;;
10442;SDS011;5269;51.146;16.986;2022-09-03T14:45:34;4.13;;;3.72;;
10442;SDS011;5269;51.146;16.986;2022-09-03T14:55:34;3.90;;;3.40;;
10442;SDS011;5269;51.146;16.986;2022-09-03T15:00:33;5.22;;;3.70;;
10442;SDS011;5269;51.146;16.986;2022-09-03T16:13:12;4.80;;;3.75;;
10442;SDS011;5269;51.146;16.986;2022-09-03T16:16:10;5.55;;;3.72;;
10442;SDS011;5269;51.146;16.986;2022-09-03T16:22:20;5.57;;;4.05;;
10442;SDS011;5269;51.146;16.986;2022-09-03T16:25:13;4.20;;;3.85;;
10442;SDS011;5269;51.146;16.986;2022-09-03T16:27:56;4.28;;;3.85;;
10442;SDS011;5269;51.146;16.986;2022-09-03T16:30:45;4.57;;;4.07;;
10442;SDS011;5269;51.146;16.986;2022-09-03T16:33:32;4.63;;;4.20;;
10442;SDS011;5269;51.146;16.986;2022-09-03T16:36:29;5.55;;;4.05;;
10442;SDS011;5269;51.146;16.986;2022-09-03T16:39:11;4.18;;;3.80;;
10442;SDS011;5269;51.146;16.986;2022-09-03T16:41:56;4.10;;;3.80;;
10442;SDS011;5269;51.146;16.986;2022-09-03T16:44:31;6.38;;;3.60;;
10442;SDS011;5269;51.146;16.986;2022-09-03T16:47:23;4.15;;;3.50;;
10442;SDS011;5269;51.146;16.986;2022-09-03T16:50:22;4.10;;;3.70;;
10442;SDS011;5269;51.146;16.986;2022-09-03T16:53:00;6.47;;;4.07;;
10442;SDS011;5269;51.146;16.986;2022-09-03T16:58:52;5.47;;;3.83;;
10442;SDS011;5269;51.146;16.986;2022-09-03T17:01:34;4.75;;;3.83;;
10442;SDS011;5269;51.146;16.986;2022-09-03T17:04:16;4.30;;;3.90;;
10442;SDS011;5269;51.146;16.986;2022-09-03T17:07:12;8.10;;;4.20;;
10442;SDS011;5269;51.146;16.986;2022-09-03T17:10:52;4.63;;;3.88;;
10442;SDS011;5269;51.146;16.986;2022-09-03T17:21:30;7.50;;;4.10;;
10442;SDS011;5269;51.146;16.986;2022-09-03T17:24:19;5.07;;;4.10;;
10442;SDS011;5269;51.146;16.986;2022-09-03T17:27:05;5.53;;;4.30;;
10442;SDS011;5269;51.146;16.986;2022-09-03T17:29:54;5.43;;;4.30;;
10442;SDS011;5269;51.146;16.986;2022-09-03T17:33:16;8.60;;;5.47;;
10442;SDS011;5269;51.146;16.986;2022-09-03T17:36:12;6.55;;;5.40;;
10442;SDS011;5269;51.146;16.986;2022-09-03T17:42:02;7.05;;;5.57;;
10442;SDS011;5269;51.146;16.986;2022-09-03T17:44:41;7.63;;;5.32;;
10442;SDS011;5269;51.146;16.986;2022-09-03T17:47:31;8.20;;;5.32;;
10442;SDS011;5269;51.146;16.986;2022-09-03T17:50:19;6.60;;;4.70;;
10442;SDS011;5269;51.146;16.986;2022-09-03T17:52:51;7.22;;;5.30;;
10442;SDS011;5269;51.146;16.986;2022-09-03T17:55:27;7.18;;;4.80;;
10442;SDS011;5269;51.146;16.986;2022-09-03T17:58:03;4.97;;;4.10;;
10442;SDS011;5269;51.146;16.986;2022-09-03T18:00:37;6.05;;;4.70;;
10442;SDS011;5269;51.146;16.986;2022-09-03T18:03:11;5.93;;;4.78;;
10442;SDS011;5269;51.146;16.986;2022-09-03T18:05:45;5.72;;;4.28;;
10442;SDS011;5269;51.146;16.986;2022-09-03T18:08:40;6.20;;;4.50;;
10442;SDS011;5269;51.146;16.986;2022-09-03T18:11:19;13.95;;;8.48;;
10442;SDS011;5269;51.146;16.986;2022-09-03T18:13:59;14.43;;;9.60;;
10442;SDS011;5269;51.146;16.986;2022-09-03T18:16:46;11.98;;;9.35;;
10442;SDS011;5269;51.146;16.986;2022-09-03T18:19:25;14.65;;;10.88;;
10442;SDS011;5269;51.146;16.986;2022-09-03T18:22:19;14.45;;;11.13;;
10442;SDS011;5269;51.146;16.986;2022-09-03T18:25:08;17.98;;;13.93;;
10442;SDS011;5269;51.146;16.986;2022-09-03T18:27:55;23.00;;;14.75;;
10442;SDS011;5269;51.146;16.986;2022-09-03T18:30:53;18.92;;;12.80;;
10442;SDS011;5269;51.146;16.986;2022-09-03T18:33:51;21.55;;;13.00;;
10442;SDS011;5269;51.146;16.986;2022-09-03T18:36:42;23.58;;;17.13;;
10442;SDS011;5269;51.146;16.986;2022-09-03T18:39:30;16.13;;;13.05;;
10442;SDS011;5269;51.146;16.986;2022-09-03T18:45:16;12.77;;;9.02;;
10442;SDS011;5269;51.146;16.986;2022-09-03T18:48:13;13.45;;;10.60;;
10442;SDS011;5269;51.146;16.986;2022-09-03T18:57:55;23.35;;;16.50;;
10442;SDS011;5269;51.146;16.986;2022-09-03T19:00:48;21.00;;;15.57;;
10442;SDS011;5269;51.146;16.986;2022-09-03T19:03:44;18.33;;;13.43;;
10442;SDS011;5269;51.146;16.986;2022-09-03T19:10:02;9.75;;;7.90;;
10442;SDS011;5269;51.146;16.986;2022-09-03T19:16:15;9.15;;;7.32;;
10442;SDS011;5269;51.146;16.986;2022-09-03T19:19:22;12.15;;;8.38;;
10442;SDS011;5269;51.146;16.986;2022-09-03T19:22:25;12.30;;;8.23;;
10442;SDS011;5269;51.146;16.986;2022-09-03T19:32:11;9.45;;;7.57;;
10442;SDS011;5269;51.146;16.986;2022-09-03T19:38:26;14.48;;;8.63;;
10442;SDS011;5269;51.146;16.986;2022-09-03T19:41:23;10.63;;;8.27;;
10442;SDS011;5269;51.146;16.986;2022-09-03T19:44:25;8.18;;;5.78;;
10442;SDS011;5269;51.146;16.986;2022-09-03T19:47:20;7.55;;;5.43;;
10442;SDS011;5269;51.146;16.986;2022-09-03T19:50:13;9.23;;;6.80;;
10442;SDS011;5269;51.146;16.986;2022-09-03T19:53:04;13.02;;;8.90;;
10442;SDS011;5269;51.146;16.986;2022-09-03T19:56:04;15.75;;;9.88;;
10442;SDS011;5269;51.146;16.986;2022-09-03T19:59:02;15.55;;;9.88;;
10442;SDS011;5269;51.146;16.986;2022-09-03T20:01:53;17.17;;;11.00;;
10442;SDS011;5269;51.146;16.986;2022-09-03T20:04:39;17.08;;;12.00;;
10442;SDS011;5269;51.146;16.986;2022-09-03T20:17:46;8.07;;;6.40;;
10442;SDS011;5269;51.146;16.986;2022-09-03T20:20:33;6.93;;;5.65;;
10442;SDS011;5269;51.146;16.986;2022-09-03T20:23:53;6.57;;;5.70;;
10442;SDS011;5269;51.146;16.986;2022-09-03T20:26:41;6.32;;;5.40;;
10442;SDS011;5269;51.146;16.986;2022-09-03T20:29:31;6.70;;;5.80;;
10442;SDS011;5269;51.146;16.986;2022-09-03T20:32:35;10.20;;;7.70;;
10442;SDS011;5269;51.146;16.986;2022-09-03T20:35:34;11.52;;;7.78;;
10442;SDS011;5269;51.146;16.986;2022-09-03T20:38:25;11.45;;;9.13;;
10442;SDS011;5269;51.146;16.986;2022-09-03T20:41:11;17.08;;;12.88;;
10442;SDS011;5269;51.146;16.986;2022-09-03T20:43:55;16.58;;;11.93;;
10442;SDS011;5269;51.146;16.986;2022-09-03T20:46:52;13.73;;;11.00;;
10442;SDS011;5269;51.146;16.986;2022-09-03T20:49:32;11.88;;;8.50;;
10442;SDS011;5269;51.146;16.986;2022-09-03T20:52:44;10.05;;;7.65;;
10442;SDS011;5269;51.146;16.986;2022-09-03T20:55:27;10.70;;;7.20;;
10442;SDS011;5269;51.146;16.986;2022-09-03T20:58:21;11.48;;;7.25;;